Time;durP1;ratioP1;P1;durP2;ratioP2;P2;SDS_P1;SDS_P2;PMS_P1;PMS_P2;Temp;Humidity;BMP_temperature;BMP_pressure;BME280_temperature;BME280_humidity;BME280_pressure;Samples;Min_cycle;Max_cycle;Signal;HPM_P1;HPM_P2
2024/03/30 00:01:21;;;;;;;31.92;8.85;;;;;;;30.24;79.53;101147.59;5025520;28;66125;-30
2024/03/30 00:03:50;;;;;;;33.22;8.93;;;;;;;30.29;80.38;101144.28;5036040;28;70684;-33
2024/03/30 00:06:19;;;;;;;29.10;9.73;;;;;;;30.27;81.37;101130.94;5018186;28;66759;-33
2024/03/30 00:08:48;;;;;;;31.13;9.60;;;;;;;30.35;81.54;101148.00;5019267;28;69351;-31
2024/03/30 00:11:16;;;;;;;12.85;10.90;;;;;;;30.37;83.08;101145.91;5018467;28;66236;-30
2024/03/30 00:13:46;;;;;;;14.15;10.80;;;;;;;30.24;83.85;101114.31;5038928;28;70027;-31
2024/03/30 00:16:14;;;;;;;13.70;11.05;;;;;;;30.42;84.29;101132.56;5029641;28;65744;-30
2024/03/30 00:18:45;;;;;;;14.07;12.75;;;;;;;30.51;84.03;101147.56;5029362;28;70832;-30
2024/03/30 00:21:15;;;;;;;17.90;16.20;;;;;;;30.64;86.80;101136.69;4993049;28;66250;-33
2024/03/30 00:23:44;;;;;;;27.75;18.00;;;;;;;30.72;86.66;101139.16;5021830;28;70098;-30
2024/03/30 00:26:13;;;;;;;21.75;18.38;;;;;;;30.77;86.54;101146.66;5019492;28;66648;-31
2024/03/30 00:28:42;;;;;;;27.27;19.35;;;;;;;30.78;86.47;101150.19;5034094;28;70602;-32
2024/03/30 00:31:10;;;;;;;23.70;18.77;;;;;;;30.82;88.04;101151.47;5032627;28;66029;-32
2024/03/30 00:33:40;;;;;;;28.90;19.10;;;;;;;30.83;87.60;101161.25;5037891;28;70349;-34
2024/03/30 00:36:09;;;;;;;18.38;16.65;;;;;;;30.70;87.72;101143.97;5003136;28;65686;-30
2024/03/30 00:38:41;;;;;;;22.77;17.85;;;;;;;30.86;87.02;101177.06;5035237;28;70139;-31
2024/03/30 00:41:10;;;;;;;19.45;17.40;;;;;;;30.83;88.39;101177.50;5020821;28;66088;-30
2024/03/30 00:43:39;;;;;;;23.38;17.15;;;;;;;30.88;87.23;101175.00;5015053;28;70175;-30
2024/03/30 00:46:08;;;;;;;19.45;17.38;;;;;;;30.89;87.73;101176.66;5038843;28;66705;-31
2024/03/30 00:48:37;;;;;;;24.48;17.73;;;;;;;30.87;89.50;101189.56;4992470;28;70335;-30
2024/03/30 00:51:06;;;;;;;24.50;16.98;;;;;;;30.80;89.41;101184.19;5008139;28;65962;-31
2024/03/30 00:53:35;;;;;;;20.83;15.88;;;;;;;30.76;90.96;101187.47;5047714;28;70596;-30
2024/03/30 00:56:04;;;;;;;16.30;14.57;;;;;;;30.83;89.86;101191.03;5032469;28;65474;-31
2024/03/30 00:58:33;;;;;;;18.10;15.50;;;;;;;30.88;89.18;101191.25;5021128;28;69990;-31
2024/03/30 01:01:03;;;;;;;17.25;14.43;;;;;;;30.89;89.31;101187.47;5025799;28;65437;-31
2024/03/30 01:03:32;;;;;;;18.73;13.70;;;;;;;30.86;88.60;101194.16;5037574;28;70389;-30
2024/03/30 01:06:04;;;;;;;15.20;13.73;;;;;;;30.89;88.77;101203.72;5036896;28;66264;-30
2024/03/30 01:08:33;;;;;;;14.98;13.63;;;;;;;30.92;88.84;101208.72;5023835;28;70607;-31
2024/03/30 01:11:04;;;;;;;16.38;13.13;;;;;;;30.95;89.19;101208.28;5036218;28;66640;-31
2024/03/30 01:13:33;;;;;;;16.50;12.88;;;;;;;30.99;89.44;101209.53;5010898;28;69782;-31
2024/03/30 01:16:10;;;;;;;17.05;12.98;;;;;;;31.03;89.94;101204.53;5021142;28;66341;-36
2024/03/30 01:18:39;;;;;;;12.70;11.65;;;;;;;31.02;89.88;101219.13;5033197;28;70373;-32
2024/03/30 01:21:08;;;;;;;13.75;11.68;;;;;;;31.02;89.97;101225.38;5025333;28;66938;-30
2024/03/30 01:23:38;;;;;;;15.82;11.50;;;;;;;31.04;90.04;101219.75;5035452;28;70807;-32
2024/03/30 01:26:09;;;;;;;13.20;11.82;;;;;;;31.03;89.63;101218.06;5006750;28;65368;-30
2024/03/30 01:28:39;;;;;;;13.05;11.90;;;;;;;31.10;89.64;101232.44;5019077;28;69842;-31
2024/03/30 01:31:13;;;;;;;11.93;11.02;;;;;;;31.12;90.82;101236.59;5040558;28;66119;-30
2024/03/30 01:33:42;;;;;;;11.95;11.18;;;;;;;31.13;90.23;101232.84;5005243;28;70232;-32
2024/03/30 01:36:11;;;;;;;12.38;11.27;;;;;;;31.14;89.19;101234.50;5017960;28;66202;-31
2024/03/30 01:38:40;;;;;;;12.73;10.48;;;;;;;31.20;89.99;101243.66;5020174;28;69780;-33
2024/03/30 01:41:09;;;;;;;12.07;10.88;;;;;;;31.22;89.19;101251.56;5036982;28;65954;-32
2024/03/30 01:43:38;;;;;;;11.63;10.63;;;;;;;31.27;89.16;101243.63;4986156;28;70423;-32
2024/03/30 01:46:07;;;;;;;12.57;11.50;;;;;;;31.31;89.07;101255.69;5021384;28;65727;-30
2024/03/30 01:48:37;;;;;;;12.18;11.20;;;;;;;31.34;89.64;101264.25;5020012;28;70054;-33
2024/03/30 01:51:06;;;;;;;12.00;10.85;;;;;;;31.37;89.64;101263.00;5021152;28;66438;-30
2024/03/30 01:53:36;;;;;;;12.85;11.05;;;;;;;31.40;89.27;101270.72;5019663;28;70247;-32
2024/03/30 01:56:05;;;;;;;11.40;10.55;;;;;;;31.42;90.40;101268.63;5035546;28;66832;-32
2024/03/30 01:58:53;;;;;;;11.77;10.77;;;;;;;31.47;90.29;101271.50;5045448;28;69635;-32
2024/03/30 02:01:23;;;;;;;12.02;10.93;;;;;;;31.49;90.17;101274.03;5003737;28;66231;-32
2024/03/30 02:03:54;;;;;;;11.88;10.98;;;;;;;31.49;88.76;101269.44;5040737;28;69451;-30
2024/03/30 02:06:24;;;;;;;11.55;10.77;;;;;;;31.56;88.88;101270.22;5026588;28;65309;-32
2024/03/30 02:08:54;;;;;;;11.85;10.75;;;;;;;31.58;89.87;101268.13;5018624;28;69882;-30
2024/03/30 02:11:24;;;;;;;14.40;10.77;;;;;;;31.59;89.68;101283.38;5016001;28;66605;-32
2024/03/30 02:13:53;;;;;;;13.23;10.20;;;;;;;31.63;89.79;101277.50;5041742;28;70783;-31
2024/03/30 02:16:24;;;;;;;11.45;10.32;;;;;;;31.61;89.91;101273.13;5008291;28;66352;-32
2024/03/30 02:18:54;;;;;;;11.55;10.25;;;;;;;31.73;88.92;101277.84;4998235;28;69766;-31
2024/03/30 02:21:23;;;;;;;12.77;11.02;;;;;;;31.74;89.56;101282.25;5013566;28;66486;-32
2024/03/30 02:23:52;;;;;;;12.55;11.38;;;;;;;31.68;89.26;101266.81;5036216;28;69881;-35
2024/03/30 02:26:21;;;;;;;12.13;10.95;;;;;;;31.78;89.28;101288.88;5021947;28;65626;-32
2024/03/30 02:28:52;;;;;;;12.40;11.60;;;;;;;31.75;88.22;101273.06;5008041;28;70301;-30
2024/03/30 02:31:22;;;;;;;13.00;11.88;;;;;;;31.82;89.09;101276.56;5000920;28;66350;-34
2024/03/30 02:33:51;;;;;;;13.10;10.98;;;;;;;31.87;88.66;101279.44;5020256;28;70153;-30
2024/03/30 02:36:21;;;;;;;11.85;10.93;;;;;;;31.74;88.26;101255.13;5008694;28;65837;-30
2024/03/30 02:38:50;;;;;;;13.77;11.75;;;;;;;31.90;87.96;101265.47;5042189;28;70590;-32
2024/03/30 02:41:19;;;;;;;11.55;10.57;;;;;;;31.97;88.49;101277.13;5018815;28;65745;-30
2024/03/30 02:43:48;;;;;;;13.27;11.20;;;;;;;32.01;88.21;101282.94;5006573;28;70160;-30
2024/03/30 02:46:19;;;;;;;13.03;11.83;;;;;;;32.03;88.44;101270.81;5052659;28;66477;-31
2024/03/30 02:48:49;;;;;;;12.40;11.32;;;;;;;32.08;88.14;101278.31;5020315;28;70245;-30
2024/03/30 02:51:17;;;;;;;11.80;11.00;;;;;;;32.05;88.42;101274.16;5027335;28;66153;-31
2024/03/30 02:53:47;;;;;;;12.15;11.02;;;;;;;32.10;88.33;101276.22;5039180;28;69818;-31
2024/03/30 02:56:16;;;;;;;19.83;11.40;;;;;;;32.12;87.40;101263.25;5018833;28;66379;-30
2024/03/30 02:58:45;;;;;;;12.82;11.88;;;;;;;32.19;87.72;101268.63;5032658;28;70718;-31
2024/03/30 03:01:14;;;;;;;12.18;10.90;;;;;;;32.23;88.48;101275.28;5029363;28;65331;-31
2024/03/30 03:03:43;;;;;;;12.93;10.85;;;;;;;32.20;88.43;101265.69;5034914;28;69651;-31
2024/03/30 03:06:12;;;;;;;10.73;10.02;;;;;;;32.26;88.46;101264.84;5020606;28;66811;-31
2024/03/30 03:08:41;;;;;;;11.25;10.50;;;;;;;32.35;87.70;101270.81;5009263;28;70329;-32
2024/03/30 03:11:11;;;;;;;11.77;10.80;;;;;;;32.32;87.95;101260.41;5022708;28;66388;-34
2024/03/30 03:13:40;;;;;;;12.30;11.30;;;;;;;32.35;87.73;101254.53;5020051;28;70396;-32
2024/03/30 03:16:09;;;;;;;11.82;10.65;;;;;;;32.42;87.27;101252.56;5015939;28;66708;-31
2024/03/30 03:18:39;;;;;;;12.32;11.07;;;;;;;32.49;86.85;101258.81;4989735;28;69569;-32
2024/03/30 03:21:08;;;;;;;12.07;10.85;;;;;;;32.51;87.19;101258.56;5024520;28;65822;-31
2024/03/30 03:23:38;;;;;;;11.23;10.32;;;;;;;32.55;87.56;101251.66;5024897;28;69917;-31
2024/03/30 03:26:07;;;;;;;10.60;9.90;;;;;;;32.55;87.22;101248.13;5026839;28;66787;-30
2024/03/30 03:28:36;;;;;;;11.88;10.90;;;;;;;32.58;87.66;101239.53;5007221;28;69153;-30
2024/03/30 03:31:05;;;;;;;15.90;11.15;;;;;;;32.60;87.39;101242.84;4991263;28;66244;-31
2024/03/30 03:33:34;;;;;;;12.05;10.60;;;;;;;32.58;87.97;101228.66;5034056;28;70493;-30
2024/03/30 03:36:04;;;;;;;12.02;10.90;;;;;;;32.66;87.44;101233.81;4975848;28;66134;-31
2024/03/30 03:38:33;;;;;;;11.70;10.70;;;;;;;32.69;87.98;101236.06;5009970;28;69834;-34
2024/03/30 03:41:02;;;;;;;13.57;10.93;;;;;;;32.70;87.14;101222.25;5006637;28;66313;-30
2024/03/30 03:43:31;;;;;;;16.95;11.73;;;;;;;32.78;87.31;101229.28;4993505;28;70204;-31
2024/03/30 03:46:01;;;;;;;11.40;10.32;;;;;;;32.84;86.92;101231.09;4989053;28;66327;-31
2024/03/30 03:48:30;;;;;;;11.90;10.98;;;;;;;32.81;87.34;101228.81;5009953;28;70245;-31
2024/03/30 03:50:59;;;;;;;18.75;10.98;;;;;;;32.87;87.08;101219.78;5041006;28;65698;-35
2024/03/30 03:53:28;;;;;;;12.05;10.80;;;;;;;32.91;86.77;101212.84;4972948;28;68379;-32
2024/03/30 03:55:58;;;;;;;11.95;11.05;;;;;;;33.01;86.31;101219.66;5011198;28;66577;-30
2024/03/30 03:58:27;;;;;;;12.35;11.07;;;;;;;33.00;86.30;101209.84;5038081;28;69853;-30
2024/03/30 04:00:56;;;;;;;12.30;11.07;;;;;;;33.03;86.12;101212.13;5021305;28;66161;-32
2024/03/30 04:03:25;;;;;;;13.13;11.98;;;;;;;33.08;85.80;101212.25;5029030;28;69960;-31
2024/03/30 04:05:54;;;;;;;12.07;10.95;;;;;;;33.15;85.72;101215.72;5029954;28;65818;-32
2024/03/30 04:08:23;;;;;;;12.25;11.15;;;;;;;33.17;85.76;101201.91;5016291;28;70483;-32
2024/03/30 04:11:00;;;;;;;13.68;12.32;;;;;;;33.07;86.40;101188.84;5017492;28;66822;-32
2024/03/30 04:13:30;;;;;;;12.73;11.88;;;;;;;33.21;86.11;101194.94;5025529;28;70721;-32
2024/03/30 04:16:06;;;;;;;12.50;11.65;;;;;;;33.23;86.36;101193.66;5018158;28;66349;-32
2024/03/30 04:18:38;;;;;;;13.45;12.07;;;;;;;33.27;85.52;101188.63;5025047;28;69828;-32
2024/03/30 04:21:08;;;;;;;12.30;11.20;;;;;;;33.27;85.77;101184.00;5023383;28;66901;-31
2024/03/30 04:23:36;;;;;;;14.50;12.50;;;;;;;33.30;85.50;101185.44;5015127;28;70416;-31
2024/03/30 04:26:10;;;;;;;12.02;10.98;;;;;;;33.19;85.85;101169.91;5017811;28;65780;-32
2024/03/30 04:28:39;;;;;;;13.00;11.90;;;;;;;33.32;85.26;101186.88;5014934;28;68591;-31
2024/03/30 04:31:10;;;;;;;19.58;11.73;;;;;;;33.40;85.06;101177.53;5024317;28;66013;-31
2024/03/30 04:33:39;;;;;;;13.10;11.80;;;;;;;33.37;85.00;101167.94;5018343;28;70850;-33
2024/03/30 04:36:08;;;;;;;12.45;11.68;;;;;;;33.46;84.91;101165.75;5007896;28;66787;-32
2024/03/30 04:38:37;;;;;;;14.80;10.95;;;;;;;33.49;84.79;101159.00;5019642;28;70290;-32
2024/03/30 04:41:08;;;;;;;12.95;11.85;;;;;;;33.52;84.67;101161.28;5020157;28;66621;-33
2024/03/30 04:43:37;;;;;;;11.88;10.70;;;;;;;33.50;84.72;101156.06;5041976;28;69772;-32
2024/03/30 04:46:09;;;;;;;11.77;10.95;;;;;;;33.57;84.38;101161.41;4999597;28;66509;-31
2024/03/30 04:48:39;;;;;;;12.40;11.43;;;;;;;33.57;84.39;101155.97;5012611;28;70134;-32
2024/03/30 04:51:08;;;;;;;11.68;10.88;;;;;;;33.66;84.14;101149.16;5028151;28;66846;-31
2024/03/30 04:53:37;;;;;;;11.45;10.50;;;;;;;33.66;83.94;101143.72;5029446;28;69398;-30
2024/03/30 04:56:07;;;;;;;11.98;11.02;;;;;;;33.73;84.08;101143.59;5018990;28;66436;-31
2024/03/30 04:58:36;;;;;;;11.68;10.85;;;;;;;33.67;83.65;101129.06;5020630;28;70580;-30
2024/03/30 05:01:10;;;;;;;11.05;10.25;;;;;;;33.75;83.74;101142.31;5030464;28;65343;-31
2024/03/30 05:03:39;;;;;;;11.35;10.32;;;;;;;33.81;83.30;101135.94;5024938;28;70422;-31
2024/03/30 05:06:09;;;;;;;11.18;10.38;;;;;;;33.85;83.21;101130.03;5021643;28;67247;-38
2024/03/30 05:08:39;;;;;;;11.40;10.38;;;;;;;33.80;83.55;101126.13;4999678;28;70263;-32
2024/03/30 05:11:09;;;;;;;10.35;9.68;;;;;;;33.87;83.03;101127.91;5031967;28;66681;-31
2024/03/30 05:13:38;;;;;;;11.55;10.63;;;;;;;33.94;83.03;101124.00;5040324;28;70174;-31
2024/03/30 05:16:10;;;;;;;10.40;9.75;;;;;;;34.01;82.74;101118.44;5024860;28;66627;-32
2024/03/30 05:18:39;;;;;;;10.80;10.20;;;;;;;34.05;82.69;101116.94;5031398;28;70823;-32
2024/03/30 05:21:08;;;;;;;10.65;9.77;;;;;;;34.09;82.42;101109.13;5014862;28;66936;-31
2024/03/30 05:23:40;;;;;;;11.18;10.20;;;;;;;34.09;82.10;101098.25;5050051;28;70122;-34
2024/03/30 05:26:09;;;;;;;10.55;9.88;;;;;;;34.07;82.22;101103.91;5043927;28;66234;-31
2024/03/30 05:28:40;;;;;;;11.57;10.88;;;;;;;34.10;82.18;101095.28;5014726;28;70290;-32
2024/03/30 05:31:21;;;;;;;11.70;10.63;;;;;;;33.76;82.19;101034.31;5022036;28;65409;-32
2024/03/30 05:33:50;;;;;;;10.73;10.13;;;;;;;34.15;82.07;101087.22;5001534;28;69143;-32
2024/03/30 05:36:19;;;;;;;12.07;11.00;;;;;;;34.17;81.93;101076.94;5022570;28;66290;-32
2024/03/30 05:38:48;;;;;;;11.55;10.75;;;;;;;34.10;80.43;101078.97;5001942;28;70116;-32
2024/03/30 05:41:17;;;;;;;15.30;10.27;;;;;;;34.02;78.49;101066.50;5004999;28;66076;-31
2024/03/30 05:43:50;;;;;;;12.82;9.20;;;;;;;33.99;75.46;101066.13;5032765;28;69689;-33
2024/03/30 05:46:23;;;;;;;10.48;9.63;;;;;;;33.90;73.71;101051.22;5023877;28;66497;-31
2024/03/30 05:48:52;;;;;;;10.75;9.48;;;;;;;33.74;71.56;101042.72;5034406;28;70477;-31
2024/03/30 05:51:21;;;;;;;13.25;8.57;;;;;;;33.76;71.88;101046.00;5024747;28;65939;-30
2024/03/30 05:53:50;;;;;;;12.07;9.00;;;;;;;33.65;69.44;101048.72;5035363;28;69994;-31
2024/03/30 05:56:20;;;;;;;9.55;8.50;;;;;;;33.55;69.31;101033.00;5027041;28;66738;-32
2024/03/30 05:58:50;;;;;;;11.27;7.95;;;;;;;33.58;67.56;101041.53;5029840;28;69786;-31
2024/03/30 06:01:19;;;;;;;9.23;7.60;;;;;;;33.40;65.55;101027.97;5036747;28;66332;-32
2024/03/30 06:03:48;;;;;;;13.27;7.63;;;;;;;33.43;67.50;101023.97;5011860;28;70350;-32
2024/03/30 06:06:19;;;;;;;8.48;7.88;;;;;;;33.38;65.39;101028.22;5012976;28;65820;-31
2024/03/30 06:08:49;;;;;;;10.40;7.50;;;;;;;33.29;64.22;101024.19;5025739;28;70872;-31
2024/03/30 06:11:18;;;;;;;7.88;7.38;;;;;;;33.20;63.61;101019.31;5019704;28;65438;-31
2024/03/30 06:13:47;;;;;;;8.43;7.82;;;;;;;33.10;61.91;101009.03;5017956;28;69602;-31
2024/03/30 06:16:16;;;;;;;7.70;7.25;;;;;;;33.08;64.21;100994.84;4991076;28;66400;-30
2024/03/30 06:18:45;;;;;;;7.78;7.05;;;;;;;33.19;63.10;101012.25;5009874;28;70858;-31
2024/03/30 06:21:17;;;;;;;13.20;8.13;;;;;;;33.26;67.38;101002.91;5018018;28;65986;-32
2024/03/30 06:23:47;;;;;;;13.02;9.88;;;;;;;33.44;70.72;100998.44;5018226;28;70371;-31
2024/03/30 06:26:16;;;;;;;9.77;9.07;;;;;;;33.56;71.60;100994.69;4995753;28;65159;-32
2024/03/30 06:28:47;;;;;;;10.20;9.13;;;;;;;33.68;72.77;101000.13;5021758;28;70028;-32
2024/03/30 06:31:15;;;;;;;10.23;9.52;;;;;;;33.80;73.62;100992.78;5029635;28;67095;-32
2024/03/30 06:33:45;;;;;;;11.75;10.65;;;;;;;33.92;74.07;100991.97;5014564;28;70708;-31
2024/03/30 06:36:14;;;;;;;10.70;10.10;;;;;;;34.01;75.26;100985.06;5012176;28;66715;-36
2024/03/30 06:38:43;;;;;;;10.25;9.60;;;;;;;34.09;75.76;100973.84;5009753;28;69504;-32
2024/03/30 06:44:03;;;;;;;12.40;9.17;;;;;;;34.26;76.03;100963.84;5020621;28;69874;-32
2024/03/30 06:46:34;;;;;;;12.07;9.35;;;;;;;34.35;75.76;100960.75;5038519;28;65873;-32
2024/03/30 06:49:03;;;;;;;10.57;9.05;;;;;;;34.42;76.33;100958.72;5026939;28;70722;-32
2024/03/30 06:51:33;;;;;;;10.05;9.38;;;;;;;34.50;76.22;100957.50;5003473;28;66475;-32
2024/03/30 06:54:03;;;;;;;9.90;8.77;;;;;;;34.53;76.40;100946.94;5018382;28;69498;-32
2024/03/30 06:56:35;;;;;;;10.00;9.20;;;;;;;34.58;76.42;100941.63;5018226;28;66751;-33
2024/03/30 06:59:04;;;;;;;10.88;9.10;;;;;;;34.62;76.07;100928.34;5036858;28;69607;-31
2024/03/30 07:01:41;;;;;;;9.88;8.98;;;;;;;34.74;76.10;100925.53;5032992;28;66046;-32
2024/03/30 07:04:10;;;;;;;11.55;9.30;;;;;;;34.80;76.51;100930.00;5012895;28;70631;-32
2024/03/30 07:06:39;;;;;;;9.40;8.82;;;;;;;34.86;76.67;100939.94;5022091;28;66787;-35
2024/03/30 07:09:08;;;;;;;10.93;9.25;;;;;;;34.95;76.42;100922.09;5026516;28;70497;-30
2024/03/30 07:11:38;;;;;;;9.95;9.05;;;;;;;35.00;76.72;100919.47;5027905;28;66357;-32
2024/03/30 07:14:07;;;;;;;9.27;8.55;;;;;;;35.06;76.63;100913.03;5020562;28;70679;-32
2024/03/30 07:16:36;;;;;;;9.55;8.65;;;;;;;35.16;75.93;100911.53;5011606;28;65320;-33
2024/03/30 07:19:08;;;;;;;9.15;8.32;;;;;;;35.19;75.98;100900.13;5034251;28;44002;-31
2024/03/30 07:21:37;;;;;;;9.75;8.65;;;;;;;35.28;76.45;100898.66;5048101;28;65478;-31
2024/03/30 07:24:06;;;;;;;8.82;8.15;;;;;;;35.34;75.85;100897.66;5020797;28;70077;-31
2024/03/30 07:26:38;;;;;;;8.40;7.90;;;;;;;35.43;76.08;100895.31;5019361;28;66561;-32
2024/03/30 07:29:07;;;;;;;9.90;8.57;;;;;;;35.51;76.05;100892.97;5014722;28;70523;-35
2024/03/30 07:31:36;;;;;;;7.93;7.40;;;;;;;35.55;76.00;100888.69;5014097;28;66571;-32
2024/03/30 07:34:05;;;;;;;8.40;7.88;;;;;;;35.60;75.70;100887.13;5019109;28;70152;-35
2024/03/30 07:36:35;;;;;;;8.20;7.47;;;;;;;35.69;75.44;100877.41;5022941;28;66376;-31
2024/03/30 07:39:04;;;;;;;9.25;7.35;;;;;;;35.75;75.85;100871.78;5010003;28;69834;-34
2024/03/30 07:41:35;;;;;;;8.43;7.72;;;;;;;35.84;75.17;100874.06;5020353;28;65477;-30
2024/03/30 07:44:04;;;;;;;7.53;7.03;;;;;;;35.86;75.09;100872.72;5019066;28;69708;-31
2024/03/30 07:46:34;;;;;;;12.63;7.40;;;;;;;35.97;74.83;100874.50;5007975;28;66108;-32
2024/03/30 07:49:04;;;;;;;9.13;7.85;;;;;;;36.02;74.95;100871.84;5001203;28;70280;-31
2024/03/30 07:51:33;;;;;;;7.90;6.68;;;;;;;36.10;74.62;100864.28;5029266;28;65567;-32
2024/03/30 07:54:03;;;;;;;7.90;7.40;;;;;;;36.19;74.71;100865.47;5041043;28;70027;-31
2024/03/30 07:56:32;;;;;;;7.72;7.22;;;;;;;36.25;74.95;100864.44;5029168;28;66407;-32
2024/03/30 07:59:03;;;;;;;8.05;7.40;;;;;;;36.33;74.55;100866.72;5025349;28;69401;-31
2024/03/30 08:01:33;;;;;;;7.38;6.90;;;;;;;36.38;74.44;100858.56;4996728;28;65545;-32
2024/03/30 08:04:03;;;;;;;8.00;7.35;;;;;;;36.45;74.10;100848.25;5014443;28;70101;-31
2024/03/30 08:06:32;;;;;;;8.25;6.90;;;;;;;36.57;74.12;100850.00;5013613;28;66336;-32
2024/03/30 08:09:01;;;;;;;8.05;6.82;;;;;;;36.60;73.85;100844.03;5012926;28;69880;-36
2024/03/30 08:11:30;;;;;;;7.45;6.75;;;;;;;36.69;74.16;100847.91;5015271;28;66175;-35
2024/03/30 08:13:59;;;;;;;6.93;6.43;;;;;;;36.75;73.46;100835.97;5019545;28;70236;-34
2024/03/30 08:16:29;;;;;;;8.40;6.85;;;;;;;36.85;73.90;100829.72;5017499;28;66291;-32
2024/03/30 08:18:58;;;;;;;6.78;6.38;;;;;;;36.89;73.68;100837.16;5037569;28;70172;-34
2024/03/30 08:21:27;;;;;;;8.10;6.72;;;;;;;36.98;73.06;100828.47;5021747;28;66271;-33
2024/03/30 08:23:57;;;;;;;8.10;6.57;;;;;;;37.05;73.43;100820.88;5015739;28;69548;-34
2024/03/30 08:26:26;;;;;;;8.20;6.85;;;;;;;37.18;72.94;100839.56;5015652;28;66427;-32
2024/03/30 08:28:55;;;;;;;6.93;6.30;;;;;;;37.24;73.47;100824.81;5016975;28;69998;-34
2024/03/30 08:31:24;;;;;;;7.15;6.53;;;;;;;37.25;72.72;100829.22;5022967;28;66592;-32
2024/03/30 08:33:55;;;;;;;6.90;6.40;;;;;;;37.24;73.14;100819.34;5023754;28;69303;-31
2024/03/30 08:36:24;;;;;;;;;;;;;;;37.21;72.64;100816.31;4995192;28;66222;-34
2024/03/30 08:38:55;;;;;;;7.35;6.82;;;;;;;37.35;72.57;100818.28;5003041;28;70148;-32
2024/03/30 08:41:24;;;;;;;6.78;6.38;;;;;;;37.45;73.03;100811.25;5015655;28;65154;-32
2024/03/30 08:43:53;;;;;;;6.93;6.38;;;;;;;37.43;72.62;100819.72;5026596;28;69586;-34
2024/03/30 08:46:23;;;;;;;8.10;7.40;;;;;;;37.52;72.73;100823.59;5033207;28;68119;-36
2024/03/30 08:49:05;;;;;;;10.02;7.28;;;;;;;37.46;71.82;100801.94;5020546;28;70393;-34
2024/03/30 08:51:37;;;;;;;7.63;7.03;;;;;;;37.62;73.07;100817.34;5010368;28;65310;-34
2024/03/30 08:54:08;;;;;;;7.82;7.25;;;;;;;37.67;72.25;100814.66;5030562;28;69930;-32
2024/03/30 08:56:38;;;;;;;7.47;7.03;;;;;;;37.72;72.45;100822.03;5033734;28;66653;-32
2024/03/30 08:59:07;;;;;;;8.63;8.02;;;;;;;37.73;72.32;100821.78;5020958;28;70210;-32
2024/03/30 09:01:37;;;;;;;8.55;7.55;;;;;;;37.84;72.10;100821.81;5042675;28;66831;-32
2024/03/30 09:04:06;;;;;;;10.15;8.40;;;;;;;37.86;71.73;100827.81;5002066;28;70105;-31
2024/03/30 09:06:35;;;;;;;11.45;9.40;;;;;;;37.95;71.42;100831.72;5045815;28;66205;-34
2024/03/30 09:09:04;;;;;;;13.98;9.80;;;;;;;38.05;71.25;100839.94;5043044;28;70113;-34
2024/03/30 09:11:33;;;;;;;12.30;11.30;;;;;;;38.10;70.39;100845.44;5046350;28;66401;-33
2024/03/30 09:14:02;;;;;;;16.20;11.73;;;;;;;38.04;70.07;100841.06;5038585;28;69436;-32
2024/03/30 09:16:32;;;;;;;13.60;12.20;;;;;;;38.11;70.20;100838.84;5023083;28;66448;-36
2024/03/30 09:19:01;;;;;;;16.70;10.83;;;;;;;38.15;71.04;100848.19;5044694;28;70412;-31
2024/03/30 09:21:31;;;;;;;15.05;10.82;;;;;;;38.20;70.45;100850.94;5034948;28;65321;-30
2024/03/30 09:24:00;;;;;;;10.05;9.27;;;;;;;38.21;70.08;100844.34;5001168;28;70325;-31
2024/03/30 09:26:32;;;;;;;9.30;8.60;;;;;;;38.29;70.64;100853.97;5033680;28;65915;-32
2024/03/30 09:29:01;;;;;;;16.95;8.60;;;;;;;38.26;69.99;100859.19;5046776;28;68916;-33
2024/03/30 09:31:30;;;;;;;8.90;8.20;;;;;;;38.31;70.29;100861.91;5022767;28;66714;-32
2024/03/30 09:33:59;;;;;;;9.73;7.97;;;;;;;38.34;70.24;100861.38;5026667;28;68800;-32
2024/03/30 09:36:30;;;;;;;11.60;8.82;;;;;;;38.21;70.24;100852.59;5022835;28;66116;-32
2024/03/30 09:38:59;;;;;;;9.77;8.98;;;;;;;38.22;69.53;100867.09;5024023;28;68870;-30
2024/03/30 09:41:36;;;;;;;9.85;9.05;;;;;;;37.93;70.33;100817.44;5018694;28;65629;-31
2024/03/30 09:44:06;;;;;;;14.27;9.27;;;;;;;38.34;69.82;100877.81;5019580;28;69981;-31
2024/03/30 09:46:36;;;;;;;12.98;8.93;;;;;;;38.27;70.21;100867.09;5026003;28;65595;-32
2024/03/30 09:49:10;;;;;;;12.52;9.10;;;;;;;38.08;70.31;100831.19;5030020;28;70403;-31
2024/03/30 09:51:40;;;;;;;10.57;8.77;;;;;;;38.17;70.50;100873.41;5030546;28;66245;-31
2024/03/30 09:54:11;;;;;;;12.23;8.97;;;;;;;38.02;70.77;100867.88;5032078;28;70090;-32
2024/03/30 09:56:45;;;;;;;9.55;8.75;;;;;;;38.15;70.87;100883.00;5019424;28;66233;-32
2024/03/30 09:59:15;;;;;;;9.45;8.75;;;;;;;38.09;71.31;100870.38;5016524;28;69513;-32
2024/03/30 10:01:44;;;;;;;12.50;8.90;;;;;;;38.13;71.11;100864.06;5021511;28;66708;-32
2024/03/30 10:04:13;;;;;;;8.88;8.20;;;;;;;38.16;71.19;100879.13;5020512;28;69337;-31
2024/03/30 10:06:56;;;;;;;9.57;8.68;;;;;;;38.09;71.28;100865.72;5021652;28;65733;-31
2024/03/30 10:09:26;;;;;;;9.05;8.23;;;;;;;38.06;71.51;100877.22;5019326;28;70131;-31
2024/03/30 10:12:15;;;;;;;10.32;8.68;;;;;;;38.07;70.53;100887.06;5018993;28;65465;-32
2024/03/30 10:14:47;;;;;;;9.07;8.38;;;;;;;38.07;71.29;100900.75;4996752;28;69611;-31
2024/03/30 10:17:16;;;;;;;9.43;8.65;;;;;;;38.02;71.23;100908.97;5032983;28;66640;-32
2024/03/30 10:19:45;;;;;;;9.32;8.45;;;;;;;38.02;71.67;100911.69;5026283;28;69488;-31
2024/03/30 10:22:14;;;;;;;8.65;8.00;;;;;;;38.00;71.56;100922.09;5009843;28;66465;-33
2024/03/30 10:24:45;;;;;;;8.88;8.30;;;;;;;37.99;71.59;100925.94;5028785;28;68879;-31
2024/03/30 10:27:14;;;;;;;8.68;8.07;;;;;;;37.95;71.82;100935.78;5026802;28;66836;-31
2024/03/30 10:29:46;;;;;;;9.38;8.55;;;;;;;37.93;71.38;100949.69;5027900;28;70534;-30
2024/03/30 10:32:15;;;;;;;9.48;8.63;;;;;;;37.92;71.94;100949.94;5021201;28;66258;-32
2024/03/30 10:34:45;;;;;;;9.95;9.13;;;;;;;37.82;71.96;100936.25;5023544;28;70235;-31
2024/03/30 10:37:14;;;;;;;8.83;8.23;;;;;;;37.86;72.17;100948.28;5022811;28;66415;-32
2024/03/30 10:39:45;;;;;;;9.82;8.70;;;;;;;37.52;72.22;100891.19;5020265;28;69488;-30
2024/03/30 10:42:14;;;;;;;11.90;8.70;;;;;;;37.85;71.81;100952.13;5001763;28;65691;-31
2024/03/30 10:44:43;;;;;;;9.20;8.40;;;;;;;37.77;72.43;100937.84;5010883;28;69869;-31
2024/03/30 10:47:12;;;;;;;9.93;9.07;;;;;;;37.78;71.96;100942.25;5026276;28;66549;-32
2024/03/30 10:49:41;;;;;;;10.35;9.50;;;;;;;37.74;72.07;100929.34;5022355;28;70244;-31
2024/03/30 10:52:13;;;;;;;11.20;9.05;;;;;;;37.69;72.29;100938.34;5023603;28;66583;-32
2024/03/30 10:54:44;;;;;;;9.43;8.75;;;;;;;37.48;72.84;100906.47;5028799;28;69056;-31
2024/03/30 10:57:13;;;;;;;9.13;8.55;;;;;;;37.62;72.79;100929.56;5025509;28;66179;-31
2024/03/30 10:59:46;;;;;;;9.68;9.05;;;;;;;37.62;72.67;100946.00;5018112;28;69540;-31
2024/03/30 11:02:24;;;;;;;9.68;9.07;;;;;;;37.55;72.46;100950.88;5019187;28;65482;-31
2024/03/30 11:04:55;;;;;;;9.52;8.82;;;;;;;37.54;73.41;100951.97;5025695;28;70724;-31
2024/03/30 11:07:26;;;;;;;10.15;9.45;;;;;;;37.28;73.04;100926.34;5034020;28;65725;-31
2024/03/30 11:09:57;;;;;;;10.75;9.93;;;;;;;37.47;73.52;100967.75;5025666;28;70460;-32
2024/03/30 11:12:27;;;;;;;9.77;9.05;;;;;;;37.37;73.18;100964.97;5004453;28;65576;-31
2024/03/30 11:14:56;;;;;;;10.43;9.50;;;;;;;37.39;73.61;100979.19;5020523;28;69929;-33
2024/03/30 11:17:31;;;;;;;10.45;9.48;;;;;;;37.35;73.21;100996.13;4983296;28;65159;-33
2024/03/30 11:20:12;;;;;;;10.63;9.68;;;;;;;37.25;73.93;100993.34;5015900;28;69465;-30
2024/03/30 11:23:05;;;;;;;9.63;8.93;;;;;;;36.98;74.09;100954.25;5034117;28;65369;-30
2024/03/30 11:25:36;;;;;;;10.00;9.07;;;;;;;37.16;73.58;100978.47;5018186;28;69260;-30
2024/03/30 11:28:07;;;;;;;9.38;8.77;;;;;;;37.18;73.80;101003.66;5027034;28;65316;-34
2024/03/30 11:30:59;;;;;;;9.88;9.07;;;;;;;37.13;74.19;101003.59;5017409;28;69581;-32
2024/03/30 11:34:10;;;;;;;10.75;9.77;;;;;;;36.98;74.45;100998.00;4999332;28;66238;-31